Federal Kumano — VRYL4 — position and weather

sailwx.info

Track history (hours):
 
Tides and Currents Weather Stations Pressure Air Temp Water Temp Dewpoint Dewpoint Depression Visibility Wind Speed Wind Dir Waves Ship Positions

Federal Kumano

Last reported at 2014-Dec-20 17:33 UTC. Time now 2014-Dec-21 23:14 UTC.
Position N 25°52' W 079°29'.

Length 200 m; draft 8.3 m.

Type: Cargo ship. MMSI: 477284000.

Date/timePositionNaut miles runAvg speedWind from/ knotsBaromVisibWave heightAir tempDewpointWater temp
2014-Dec-20 17:33N 25°52' W 079°29'1313.1
2014-Dec-20 16:32N 26°05' W 079°25'  
2014-Dec-13 19:17N 46°38' W 071°56'1013.9
2014-Dec-13 18:33N 46°33' W 072°09'1313.2
2014-Dec-13 17:33N 46°24' W 072°24'1211.6
2014-Dec-13 16:33N 46°17' W 072°36'1313.2
2014-Dec-13 15:33N 46°11' W 072°54'1312.8
2014-Dec-13 14:33N 46°03' W 073°08'38 1.6
2014-Dec-12 15:34N 45°29' W 073°31'5 4.5
2014-Dec-12 14:33N 45°25' W 073°32'2 2.1
2014-Dec-12 13:33N 45°24' W 073°35'5 5.3
2014-Dec-12 12:34N 45°25' W 073°42'10 9.8
2014-Dec-12 11:34N 45°20' W 073°54'1 1.1
2014-Dec-12 10:34N 45°19' W 073°55'1 1.1
2014-Dec-12 09:34N 45°18' W 073°56'3 3.0
2014-Dec-12 08:34N 45°15' W 073°58'8 7.6
2014-Dec-12 07:34N 45°14' W 074°09'106 8.5
2014-Dec-11 19:03N 44°13' W 076°11'1938.7
2014-Dec-11 18:34N 43°59' W 076°29'0 0.3
2014-Dec-11 17:34N 43°59' W 076°29'3 2.7
2014-Dec-11 16:33N 43°57' W 076°31'  
Track history (hours):
 
Tides and Currents Weather Stations Pressure Air Temp Water Temp Dewpoint Dewpoint Depression Visibility Wind Speed Wind Dir Waves Ship Positions

Federal Kumano

Last reported at 2014-Dec-20 17:33 UTC. Time now 2014-Dec-21 23:14 UTC.
Position N 25°52' W 079°29'.

Length 200 m; draft 8.3 m.

Type: Cargo ship. MMSI: 477284000.

Date/timePositionNaut miles runAvg speedWind from/ knotsBaromVisibWave heightAir tempDewpointWater temp
2014-Dec-20 17:33N 25°52' W 079°29'1313.1
2014-Dec-20 16:32N 26°05' W 079°25'  
2014-Dec-13 19:17N 46°38' W 071°56'1013.9
2014-Dec-13 18:33N 46°33' W 072°09'1313.2
2014-Dec-13 17:33N 46°24' W 072°24'1211.6
2014-Dec-13 16:33N 46°17' W 072°36'1313.2
2014-Dec-13 15:33N 46°11' W 072°54'1312.8
2014-Dec-13 14:33N 46°03' W 073°08'38 1.6
2014-Dec-12 15:34N 45°29' W 073°31'5 4.5
2014-Dec-12 14:33N 45°25' W 073°32'2 2.1
2014-Dec-12 13:33N 45°24' W 073°35'5 5.3
2014-Dec-12 12:34N 45°25' W 073°42'10 9.8
2014-Dec-12 11:34N 45°20' W 073°54'1 1.1
2014-Dec-12 10:34N 45°19' W 073°55'1 1.1
2014-Dec-12 09:34N 45°18' W 073°56'3 3.0
2014-Dec-12 08:34N 45°15' W 073°58'8 7.6
2014-Dec-12 07:34N 45°14' W 074°09'106 8.5
2014-Dec-11 19:03N 44°13' W 076°11'1938.7
2014-Dec-11 18:34N 43°59' W 076°29'0 0.3
2014-Dec-11 17:34N 43°59' W 076°29'3 2.7
2014-Dec-11 16:33N 43°57' W 076°31'  

Dump ship's entire track history